createdAt,value
2022-10-04T00:04:10.142Z,8.27
2022-10-04T00:08:27.710Z,7.28
2022-10-04T00:12:34.328Z,7.68
2022-10-04T00:16:39.456Z,7.53
2022-10-04T00:21:04.798Z,5.90
2022-10-04T00:25:22.167Z,7.85
2022-10-04T00:29:31.914Z,6.03
2022-10-04T00:33:35.784Z,6.20
2022-10-04T00:37:58.131Z,7.45
2022-10-04T00:42:12.767Z,9.55
2022-10-04T00:46:21.359Z,6.07
2022-10-04T00:50:30.939Z,3.63
2022-10-04T00:54:41.282Z,7.47
2022-10-04T00:59:04.699Z,11.20
2022-10-04T01:03:13.286Z,5.50
2022-10-04T01:07:22.160Z,7.95
2022-10-04T01:11:29.418Z,6.32
2022-10-04T01:15:38.555Z,6.43
2022-10-04T01:19:52.099Z,5.15
2022-10-04T01:24:22.647Z,8.93
2022-10-04T01:28:25.531Z,6.38
2022-10-04T01:32:28.965Z,4.10
2022-10-04T01:36:32.559Z,5.50
2022-10-04T01:40:40.442Z,4.97
2022-10-04T01:44:49.750Z,4.60
2022-10-04T01:48:55.375Z,5.78
2022-10-04T01:53:06.541Z,7.30
2022-10-04T01:57:17.937Z,7.65
2022-10-04T02:01:31.557Z,4.53
2022-10-04T02:05:37.653Z,6.20
2022-10-04T02:09:43.679Z,7.32
2022-10-04T02:13:50.261Z,5.72
2022-10-04T02:17:54.682Z,4.28
2022-10-04T02:21:58.241Z,7.65
2022-10-04T02:26:05.104Z,4.65
2022-10-04T02:30:12.556Z,4.50
2022-10-04T02:34:15.513Z,6.57
2022-10-04T02:38:22.488Z,6.95
2022-10-04T02:42:39.925Z,5.38
2022-10-04T02:46:52.451Z,6.90
2022-10-04T02:50:58.552Z,3.42
2022-10-04T02:55:05.459Z,5.63
2022-10-04T02:59:08.998Z,5.93
2022-10-04T03:03:25.911Z,5.90
2022-10-04T03:07:28.810Z,3.42
2022-10-04T03:11:36.841Z,2.95
2022-10-04T03:15:40.075Z,3.00
2022-10-04T03:19:45.345Z,7.68
2022-10-04T03:23:50.801Z,7.43
2022-10-04T03:27:54.107Z,5.78
2022-10-04T03:31:58.455Z,5.07
2022-10-04T03:36:03.395Z,4.70
2022-10-04T03:40:11.120Z,4.25
2022-10-04T03:44:17.328Z,6.18
2022-10-04T03:48:29.806Z,3.05
2022-10-04T03:52:37.797Z,8.85
2022-10-04T03:56:40.561Z,2.72
2022-10-04T04:00:46.961Z,5.80
2022-10-04T04:13:07.930Z,7.55
2022-10-04T04:17:35.158Z,5.40
2022-10-04T04:21:38.464Z,3.47
2022-10-04T04:25:45.907Z,4.35
2022-10-04T04:29:51.861Z,7.93
2022-10-04T04:34:00.687Z,9.15
2022-10-04T04:38:15.154Z,13.35
2022-10-04T04:42:23.561Z,9.32
2022-10-04T04:46:28.146Z,7.65
2022-10-04T04:50:34.318Z,10.18
2022-10-04T04:54:37.027Z,8.18
2022-10-04T04:58:46.521Z,5.90
2022-10-04T05:02:58.653Z,8.55
2022-10-04T05:07:03.994Z,22.27
2022-10-04T05:11:16.044Z,17.30
2022-10-04T05:15:20.377Z,12.02
2022-10-04T05:19:25.895Z,12.10
2022-10-04T05:23:28.750Z,8.57
2022-10-04T05:27:36.427Z,10.30
2022-10-04T05:31:49.230Z,10.45
2022-10-04T05:36:10.650Z,7.60
2022-10-04T05:40:32.114Z,4.20
2022-10-04T05:44:45.533Z,6.43
2022-10-04T05:48:54.428Z,7.45
2022-10-04T05:53:22.700Z,5.70
2022-10-04T05:57:39.570Z,10.20
2022-10-04T06:05:55.622Z,8.05
2022-10-04T06:10:12.482Z,9.07
2022-10-04T06:14:31.594Z,8.23
2022-10-04T06:18:50.613Z,10.45
2022-10-04T06:22:59.876Z,9.60
2022-10-04T06:27:11.887Z,5.95
2022-10-04T06:32:01.341Z,7.32
2022-10-04T06:36:33.309Z,9.00
2022-10-04T06:40:54.147Z,7.55
2022-10-04T06:45:17.852Z,6.57
2022-10-04T06:49:38.314Z,8.48
2022-10-04T06:53:52.094Z,5.47
2022-10-04T06:58:15.130Z,8.80
2022-10-04T07:02:22.416Z,7.97
2022-10-04T07:06:30.252Z,7.57
2022-10-04T07:10:37.673Z,9.77
2022-10-04T07:14:47.819Z,8.60
2022-10-04T07:18:58.541Z,15.25
2022-10-04T07:23:06.061Z,10.95
2022-10-04T07:27:14.181Z,11.15
2022-10-04T07:31:26.034Z,8.63
2022-10-04T07:35:36.046Z,20.20
2022-10-04T07:39:46.784Z,10.95
2022-10-04T07:43:54.382Z,10.52
2022-10-04T07:48:10.860Z,5.95
2022-10-04T07:52:32.804Z,5.80
2022-10-04T07:56:40.702Z,12.32
2022-10-04T08:00:50.667Z,11.73
2022-10-04T08:05:02.684Z,8.57
2022-10-04T08:09:24.192Z,8.30
2022-10-04T08:13:34.635Z,9.70
2022-10-04T08:17:52.114Z,7.13
2022-10-04T08:22:02.988Z,7.03
2022-10-04T08:26:23.035Z,8.63
2022-10-04T08:30:25.853Z,6.72
2022-10-04T08:34:44.805Z,4.95
2022-10-04T08:38:53.889Z,5.10
2022-10-04T08:43:15.607Z,4.28
2022-10-04T08:48:11.841Z,10.13
2022-10-04T08:52:59.890Z,9.30
2022-10-04T08:57:33.110Z,6.90
2022-10-04T09:02:24.293Z,11.52
2022-10-04T09:06:39.407Z,5.68
2022-10-04T09:11:17.338Z,6.85
2022-10-04T09:15:52.323Z,9.50
2022-10-04T09:20:14.016Z,6.80
2022-10-04T09:24:39.391Z,8.98
2022-10-04T09:29:17.075Z,8.45
2022-10-04T09:33:41.414Z,3.00
2022-10-04T09:37:59.867Z,6.32
2022-10-04T09:42:39.171Z,5.88
2022-10-04T09:46:59.996Z,5.03
2022-10-04T09:51:20.454Z,7.38
2022-10-04T09:55:41.352Z,5.18
2022-10-04T09:59:58.168Z,5.65
2022-10-04T10:04:34.211Z,4.55
2022-10-04T10:08:54.202Z,3.30
2022-10-04T10:13:32.940Z,5.90
2022-10-04T10:17:43.926Z,4.05
2022-10-04T10:21:59.261Z,5.57
2022-10-04T10:26:25.072Z,4.43
2022-10-04T10:30:38.409Z,8.43
2022-10-04T10:35:13.075Z,5.35
2022-10-04T10:40:03.399Z,3.42
2022-10-04T10:44:23.623Z,5.03
2022-10-04T10:48:53.719Z,5.70
2022-10-04T10:53:16.939Z,3.58
2022-10-04T10:57:34.798Z,4.68
2022-10-04T11:02:10.227Z,3.75
2022-10-04T11:06:53.803Z,5.65
2022-10-04T11:11:23.311Z,4.70
2022-10-04T11:15:40.596Z,4.18
2022-10-04T11:20:24.761Z,4.95
2022-10-04T11:24:47.760Z,2.78
2022-10-04T11:28:58.913Z,5.40
2022-10-04T11:33:35.231Z,6.05
2022-10-04T11:37:53.661Z,4.18
2022-10-04T11:42:00.637Z,6.20
2022-10-04T11:46:29.557Z,4.03
2022-10-04T11:50:45.480Z,4.30
2022-10-04T11:55:42.581Z,2.65
2022-10-04T11:59:54.849Z,5.82
2022-10-04T12:04:40.218Z,2.78
2022-10-04T12:08:54.115Z,7.10
2022-10-04T12:13:37.883Z,3.67
2022-10-04T12:18:06.119Z,2.77
2022-10-04T12:22:20.178Z,4.45
2022-10-04T12:26:39.674Z,3.92
2022-10-04T12:31:08.109Z,4.53
2022-10-04T12:35:27.220Z,3.85
2022-10-04T12:39:45.621Z,3.97
2022-10-04T12:44:00.274Z,2.75
2022-10-04T12:48:23.585Z,2.40
2022-10-04T12:52:35.427Z,4.70
2022-10-04T12:56:48.728Z,3.67
2022-10-04T13:00:57.732Z,3.15
2022-10-04T13:05:09.079Z,4.65
2022-10-04T13:09:18.779Z,3.30
2022-10-04T13:14:05.463Z,6.93
2022-10-04T13:18:21.244Z,5.07
2022-10-04T13:22:56.937Z,7.20
2022-10-04T13:27:06.037Z,4.30
2022-10-04T13:31:14.028Z,2.20
2022-10-04T13:35:23.713Z,3.42
2022-10-04T13:39:52.260Z,3.67
2022-10-04T13:44:08.914Z,4.95
2022-10-04T13:48:31.834Z,5.45
2022-10-04T13:53:04.491Z,3.15
2022-10-04T13:57:21.571Z,2.47
2022-10-04T14:01:49.375Z,4.03
2022-10-04T14:06:14.431Z,5.40
2022-10-04T14:10:35.625Z,6.60
2022-10-04T14:15:19.686Z,8.63
2022-10-04T14:19:57.982Z,5.03
2022-10-04T14:24:49.827Z,4.72
2022-10-04T14:29:11.905Z,5.55
2022-10-04T14:33:36.634Z,6.28
2022-10-04T14:38:04.348Z,3.60
2022-10-04T14:42:26.660Z,4.25
2022-10-04T14:46:41.631Z,5.63
2022-10-04T14:50:58.110Z,5.78
2022-10-04T14:59:31.091Z,6.63
2022-10-04T15:03:40.612Z,4.45
2022-10-04T15:07:49.884Z,6.88
2022-10-04T15:12:25.634Z,3.67
2022-10-04T15:16:33.832Z,12.77
2022-10-04T15:20:51.500Z,3.73
2022-10-04T15:24:55.221Z,8.18
2022-10-04T15:29:06.766Z,9.85
2022-10-04T15:33:26.899Z,7.05
2022-10-04T15:37:43.982Z,3.63
2022-10-04T15:41:52.119Z,4.05
2022-10-04T15:46:06.218Z,6.43
2022-10-04T15:50:25.862Z,6.72
2022-10-04T15:54:52.049Z,3.28
2022-10-04T15:59:12.613Z,3.50
2022-10-04T16:03:27.211Z,6.13
2022-10-04T16:07:40.471Z,4.97
2022-10-04T16:11:57.891Z,6.15
2022-10-04T16:16:30.303Z,3.72
2022-10-04T16:21:07.205Z,6.75
2022-10-04T16:25:38.546Z,10.25
2022-10-04T16:30:14.473Z,4.70
2022-10-04T16:34:34.971Z,8.50
2022-10-04T16:39:07.494Z,6.15
2022-10-04T16:43:21.960Z,6.38
2022-10-04T16:47:29.691Z,7.18
2022-10-04T16:51:53.686Z,7.70
2022-10-04T16:56:02.257Z,8.63
2022-10-04T17:00:37.788Z,8.35
2022-10-04T17:05:03.435Z,8.90
2022-10-04T17:09:18.596Z,7.53
2022-10-04T17:13:29.540Z,9.65
2022-10-04T17:17:45.226Z,7.95
2022-10-04T17:22:05.789Z,10.70
2022-10-04T17:26:19.099Z,15.15
2022-10-04T17:30:25.304Z,11.23
2022-10-04T17:34:42.074Z,78.40
2022-10-04T17:38:59.122Z,190.68
2022-10-04T17:43:07.951Z,210.45
2022-10-04T17:47:21.547Z,76.00
2022-10-04T17:51:59.345Z,19.70
2022-10-04T17:56:05.957Z,53.53
2022-10-04T18:04:19.886Z,27.75
2022-10-04T18:08:34.107Z,18.60
2022-10-04T18:12:45.275Z,24.83
2022-10-04T18:16:52.889Z,18.40
2022-10-04T18:21:07.585Z,13.73
2022-10-04T18:25:15.428Z,15.55
2022-10-04T18:29:37.842Z,14.57
2022-10-04T18:33:50.040Z,16.38
2022-10-04T18:37:55.972Z,20.05
2022-10-04T18:42:08.185Z,20.87
2022-10-04T18:46:20.985Z,15.27
2022-10-04T18:50:35.839Z,17.23
2022-10-04T18:54:48.362Z,15.20
2022-10-04T18:59:20.339Z,14.82
2022-10-04T19:03:33.766Z,16.88
2022-10-04T19:07:44.291Z,13.45
2022-10-04T19:11:54.811Z,14.02
2022-10-04T19:16:15.864Z,13.65
2022-10-04T19:20:24.923Z,14.40
2022-10-04T19:24:46.379Z,13.35
2022-10-04T19:29:00.180Z,13.35
2022-10-04T19:33:14.959Z,14.50
2022-10-04T19:37:24.832Z,10.20
2022-10-04T19:41:42.338Z,14.10
2022-10-04T19:46:05.388Z,8.73
2022-10-04T19:50:19.014Z,4.53
2022-10-04T19:54:29.361Z,6.40
2022-10-04T19:58:38.048Z,5.65
2022-10-04T20:02:47.613Z,6.07
2022-10-04T20:06:56.508Z,5.10
2022-10-04T20:11:18.358Z,10.15
2022-10-04T20:15:43.695Z,13.27
2022-10-04T20:19:47.818Z,11.80
2022-10-04T20:23:56.697Z,6.38
2022-10-04T20:28:03.657Z,12.73
2022-10-04T20:32:08.236Z,11.23
2022-10-04T20:36:14.307Z,13.57
2022-10-04T20:40:44.328Z,10.30
2022-10-04T20:45:20.838Z,8.40
2022-10-04T20:49:23.673Z,15.00
2022-10-04T20:53:30.369Z,8.70
2022-10-04T20:57:37.285Z,8.55
2022-10-04T21:01:46.233Z,10.98
2022-10-04T21:06:01.028Z,8.23
2022-10-04T21:10:17.846Z,8.88
2022-10-04T21:14:24.554Z,12.90
2022-10-04T21:22:42.848Z,9.30
2022-10-04T21:26:57.752Z,7.18
2022-10-04T21:31:01.554Z,12.77
2022-10-04T21:35:05.410Z,7.93
2022-10-04T21:39:08.135Z,15.05
2022-10-04T21:43:12.197Z,8.50
2022-10-04T21:47:14.988Z,11.57
2022-10-04T21:51:17.712Z,8.40
2022-10-04T21:55:20.402Z,12.52
2022-10-04T21:59:24.632Z,13.25
2022-10-04T22:03:27.334Z,9.32
2022-10-04T22:07:30.020Z,10.48
2022-10-04T22:11:32.739Z,11.30
2022-10-04T22:15:36.838Z,11.15
2022-10-04T22:19:39.543Z,7.88
2022-10-04T22:23:44.387Z,7.90
2022-10-04T22:27:48.041Z,7.45
2022-10-04T22:31:53.527Z,10.57
2022-10-04T22:35:57.499Z,13.13
2022-10-04T22:40:00.321Z,8.68
2022-10-04T22:44:13.220Z,9.68
2022-10-04T22:48:17.327Z,10.48
2022-10-04T22:52:22.302Z,8.45
2022-10-04T22:56:26.122Z,7.25
2022-10-04T23:00:28.810Z,9.07
2022-10-04T23:04:32.964Z,6.90
2022-10-04T23:08:35.689Z,7.70
2022-10-04T23:12:38.843Z,10.20
2022-10-04T23:16:42.931Z,9.02
2022-10-04T23:20:51.669Z,10.07
2022-10-04T23:24:55.398Z,9.98
2022-10-04T23:28:59.716Z,6.85
2022-10-04T23:33:02.454Z,6.22
2022-10-04T23:37:15.932Z,10.63
2022-10-04T23:41:20.338Z,10.18
2022-10-04T23:45:24.491Z,7.40
2022-10-04T23:49:27.264Z,8.07
2022-10-04T23:53:33.804Z,14.70
